Share

Ajo, AZ

7:39 AM MST on April 23, 2014 (GMT -0700)
KAZAJO2 Elev 1739 ft | 32.38 °N, 112.86 °W | Change Station

Current weather conditions updated 4 minutes ago

Clear
Clear
65.9 °F
Feels Like 65.9 °F
N
3.0
Wind Variable Wind from NE
Gusts 3.0 mph
Sunrise 5:53 AM
Sunset 7:06 PM
Moon Waning Crescent

Today is forecast to be Cooler than yesterday.

Pressure 29.79 in
Visibility 10.0 miles
Clouds Clear
Dew Point 37 °F
Humidity 34%
Rainfall 0.00 in
Snow Depth Not available.
UV 1 out of 16
Pollen 8.50 out of 12
Air Quality Not available.
Flu Activity Local Activity
METAR KGXF 231355Z 21003KT 10SM CLR 16/M03 A2982 RMK SLP086 FIRST

More Conditions Fewer Conditions

Pressure 29.79 in
Visibility 10.0 miles
Clouds Clear
Dew Point 37 °F
Humidity 34%
Rainfall 0.00 in
Snow Depth Not available.
UV 1 out of 16
Pollen 8.50 out of 12
Air Quality Not available.
Flu Activity Local Activity
METAR KGXF 231355Z 21003KT 10SM CLR 16/M03 A2982 RMK SLP086 FIRST

More Conditions Fewer Conditions

10-Day Weather Forecast

Almanac

Astronomy

Apr. 23, 2014 Rise Set
Actual Time 5:53 AM MST 7:06 PM MST
Civil Twilight 5:27 AM MST 7:32 PM MST
Nautical Twilight 4:56 AM MST 8:03 PM MST
Astronomical Twilight 4:25 AM MST 8:34 PM MST
Moon 2:06 AM MST 1:39 PM MST
Length of Visible Light 14h 05m
Length of Day
13h 13m
Tomorrow will be 1m 48s longer.
Waning Crescent, 36% of the Moon is Illuminated
Today
Waning Crescent
Apr 29
New
May 6
First Quarter
May 14
Full
May 21
Last Quarter

Today's Extremes

State Highs State Lows

Community

  • spring flowers
    spring flowers
  • Earth Day Spectrum Ove' Blue
    Earth Day Spectrum Ove' Blue
  • BARN B&W
    BARN B&W
  • April Sunset
    April Sunset
  • Waiting..
    Waiting..

WunderPhotos

Upload Photos

1,704,296 photos uploaded!

Nearby

Snow Depth

Station Depth Elevation
Workman Creek 2 in 6900 ft
Baker Butte 0 in 7300 ft
Promontory 0 in 7930 ft
Heber 0 in 7640 ft
Happy Jack 0 in 7630 ft

Coastal Water Temperatures

Place Temperature
No Stations Reporting

Earthquake Activity

City Distance Mag. Time & Date
No recent earthquake activity has been reported nearby.
Minimum magnitude displayed is 2.5.

Nearby Weather Stations

Station Location Temp. Dew Point Humidity Wind Precip. Elev Updated Type
Ajo, AZ 65.9 °F 37 °F 34% NE  at  3.0 mph 0.00 in / hr 1739 ft 7:35 AM MST Normal

Show More Stations Show Fewer Stations

What do you think?

We're not finished. Please let us know what you like, what you don't like, and what you are still missing.